Time;durP1;ratioP1;P1;durP2;ratioP2;P2;SDS_P1;SDS_P2;PMS_P1;PMS_P2;Temp;Humidity;BMP_temperature;BMP_pressure;BME280_temperature;BME280_humidity;BME280_pressure;Samples;Min_cycle;Max_cycle;Signal;HPM_P1;HPM_P2
2022/05/15 00:01:15;;;;;;;10.73;5.20;;;13.70;99.90;;;;;;4989796;28;20232;-72
2022/05/15 00:03:41;;;;;;;8.73;5.43;;;13.60;99.90;;;;;;4989741;28;20197;-74
2022/05/15 00:06:08;;;;;;;8.43;5.57;;;13.40;99.90;;;;;;4990325;28;20215;-71
2022/05/15 00:08:38;;;;;;;9.60;5.27;;;13.40;99.90;;;;;;4990673;28;20673;-71
2022/05/15 00:11:08;;;;;;;9.10;5.70;;;13.30;99.90;;;;;;4983760;28;20212;-69
2022/05/15 00:13:35;;;;;;;8.97;5.63;;;13.30;99.90;;;;;;4990699;28;20200;-71
2022/05/15 00:16:02;;;;;;;6.90;5.20;;;13.20;99.90;;;;;;4985571;28;20217;-74
2022/05/15 00:18:28;;;;;;;9.93;5.60;;;13.20;99.90;;;;;;4987160;28;20207;-70
2022/05/15 00:20:55;;;;;;;7.67;5.17;;;13.10;99.90;;;;;;4986913;28;20636;-71
2022/05/15 00:23:23;;;;;;;9.70;5.80;;;13.00;99.90;;;;;;4982965;28;20201;-72
2022/05/15 00:25:50;;;;;;;10.07;5.63;;;13.00;99.90;;;;;;4987445;28;20231;-71
2022/05/15 00:28:17;;;;;;;8.53;5.67;;;13.00;99.90;;;;;;4983692;28;20339;-71
2022/05/15 00:30:44;;;;;;;6.43;4.83;;;13.20;99.90;;;;;;4985446;28;20201;-70
2022/05/15 00:33:11;;;;;;;8.43;5.77;;;13.30;99.90;;;;;;4990155;28;20632;-71
2022/05/15 00:35:38;;;;;;;10.00;5.90;;;13.30;99.90;;;;;;4986518;28;20216;-69
2022/05/15 00:38:07;;;;;;;10.47;5.70;;;13.30;99.90;;;;;;4986225;28;20207;-73
2022/05/15 00:40:38;;;;;;;9.20;6.00;;;13.20;99.90;;;;;;4989362;28;20203;-71
2022/05/15 00:43:13;;;;;;;10.47;6.47;;;13.00;99.90;;;;;;4986753;28;20197;-74
2022/05/15 00:45:39;;;;;;;10.10;6.17;;;12.90;99.90;;;;;;4984240;28;20753;-71
2022/05/15 00:48:06;;;;;;;9.43;6.33;;;12.80;99.90;;;;;;4990485;28;20556;-71
2022/05/15 00:50:37;;;;;;;9.50;6.17;;;12.70;99.90;;;;;;4990780;28;20629;-72
2022/05/15 00:53:08;;;;;;;8.43;5.93;;;12.60;99.90;;;;;;4985986;28;20205;-74
2022/05/15 00:55:40;;;;;;;9.03;6.20;;;12.60;99.90;;;;;;5004069;28;20228;-73
2022/05/15 00:58:13;;;;;;;11.20;6.77;;;12.50;99.90;;;;;;4987470;28;20204;-70
2022/05/15 01:00:42;;;;;;;11.50;6.93;;;12.40;99.90;;;;;;4988054;28;20254;-72
2022/05/15 01:03:19;;;;;;;11.30;6.83;;;12.40;99.90;;;;;;4988997;28;20194;-73
2022/05/15 01:05:49;;;;;;;13.97;7.10;;;12.40;99.90;;;;;;4981755;28;20228;-71
2022/05/15 01:08:20;;;;;;;14.30;6.93;;;12.60;99.90;;;;;;4989131;28;20672;-73
2022/05/15 01:10:52;;;;;;;13.77;6.87;;;12.50;99.90;;;;;;4990460;28;20226;-71
2022/05/15 01:13:27;;;;;;;12.63;7.20;;;12.60;99.90;;;;;;4988009;28;20265;-72
2022/05/15 01:15:53;;;;;;;12.63;6.77;;;12.50;99.90;;;;;;4984419;28;20752;-72
2022/05/15 01:18:24;;;;;;;10.00;6.57;;;12.40;99.90;;;;;;4989819;28;20421;-71
2022/05/15 01:21:19;;;;;;;11.07;6.60;;;12.30;99.90;;;;;;4993031;28;20279;-71
2022/05/15 01:23:45;;;;;;;13.43;7.70;;;12.30;99.90;;;;;;4973222;28;20202;-71
2022/05/15 01:26:13;;;;;;;11.07;7.50;;;12.30;99.90;;;;;;4988120;28;20226;-72
2022/05/15 01:28:40;;;;;;;14.47;8.27;;;12.40;99.90;;;;;;4992868;28;20202;-71
2022/05/15 01:31:07;;;;;;;13.80;7.73;;;12.50;99.90;;;;;;4985644;28;20573;-71
2022/05/15 01:33:33;;;;;;;12.07;7.57;;;12.60;99.90;;;;;;4989019;28;20238;-72
2022/05/15 01:36:00;;;;;;;13.13;7.40;;;12.50;99.90;;;;;;4982396;28;20721;-71
2022/05/15 01:38:27;;;;;;;12.80;7.90;;;12.50;99.90;;;;;;4985968;28;20668;-71
2022/05/15 01:40:53;;;;;;;11.30;7.90;;;12.40;99.90;;;;;;4991469;28;20205;-72
2022/05/15 01:43:20;;;;;;;10.97;7.37;;;12.40;99.90;;;;;;4991418;28;20614;-71
2022/05/15 01:45:46;;;;;;;12.57;8.10;;;12.40;99.90;;;;;;4989957;28;20215;-74
2022/05/15 01:48:13;;;;;;;10.83;7.37;;;12.20;99.90;;;;;;4989438;28;20851;-71
2022/05/15 01:50:40;;;;;;;13.40;8.20;;;12.10;99.90;;;;;;4993003;28;20579;-71
2022/05/15 01:53:07;;;;;;;12.77;8.23;;;12.00;99.90;;;;;;4985798;28;20208;-73
2022/05/15 01:55:34;;;;;;;11.40;7.97;;;12.00;99.90;;;;;;4983975;28;20272;-71
2022/05/15 01:58:00;;;;;;;11.57;8.20;;;11.90;99.90;;;;;;4992564;28;20247;-70
2022/05/15 02:00:27;;;;;;;14.60;7.77;;;12.10;99.90;;;;;;4988406;28;20205;-72
2022/05/15 02:02:54;;;;;;;11.53;7.23;;;11.90;99.90;;;;;;4986360;28;20754;-74
2022/05/15 02:05:22;;;;;;;13.03;7.47;;;11.90;99.90;;;;;;4992119;28;20220;-71
2022/05/15 02:07:48;;;;;;;12.87;7.80;;;11.80;99.90;;;;;;4990976;28;20193;-74
2022/05/15 02:10:16;;;;;;;13.40;6.90;;;11.80;99.90;;;;;;4981331;28;20207;-71
2022/05/15 02:12:44;;;;;;;13.70;8.27;;;11.80;99.90;;;;;;4991554;28;20198;-73
2022/05/15 02:15:11;;;;;;;12.50;7.47;;;11.70;99.90;;;;;;4990121;28;20574;-75
2022/05/15 02:17:39;;;;;;;12.53;7.17;;;11.70;99.90;;;;;;4987922;28;20225;-73
2022/05/15 02:20:06;;;;;;;11.90;7.83;;;11.70;99.90;;;;;;4982842;28;20574;-72
2022/05/15 02:22:34;;;;;;;9.67;6.77;;;11.80;99.90;;;;;;4986784;28;20222;-73
2022/05/15 02:25:00;;;;;;;14.90;7.43;;;11.80;99.90;;;;;;4987349;28;20198;-71
2022/05/15 02:27:27;;;;;;;12.63;7.77;;;11.80;99.90;;;;;;4985869;28;20234;-72
2022/05/15 02:29:54;;;;;;;15.47;7.93;;;11.90;99.90;;;;;;4988196;28;20203;-74
2022/05/15 02:32:20;;;;;;;9.77;7.00;;;11.90;99.90;;;;;;4986939;28;20248;-73
2022/05/15 02:34:47;;;;;;;12.47;7.50;;;12.00;99.90;;;;;;4980533;28;20208;-73
2022/05/15 02:37:13;;;;;;;13.17;7.40;;;12.00;99.90;;;;;;4988746;28;20651;-72
2022/05/15 02:39:40;;;;;;;12.97;7.57;;;12.00;99.90;;;;;;4990427;28;20259;-72
2022/05/15 02:42:07;;;;;;;11.17;7.23;;;12.00;99.90;;;;;;4987970;28;20227;-74
2022/05/15 02:44:33;;;;;;;15.00;8.30;;;11.80;99.90;;;;;;4987658;28;20270;-74
2022/05/15 02:47:00;;;;;;;11.63;7.43;;;11.80;99.90;;;;;;4989546;28;20214;-72
2022/05/15 02:52:12;;;;;;;10.63;7.93;;;11.70;99.90;;;;;;4989770;28;20202;-74
2022/05/15 02:54:39;;;;;;;14.03;7.63;;;11.70;99.90;;;;;;4986992;28;20206;-71
2022/05/15 02:57:07;;;;;;;12.00;7.37;;;11.70;99.90;;;;;;4990078;28;20222;-74
2022/05/15 02:59:34;;;;;;;10.67;7.53;;;11.70;99.90;;;;;;4986783;28;20567;-73
2022/05/15 03:02:01;;;;;;;11.57;7.70;;;11.70;99.90;;;;;;4987197;28;20222;-74
2022/05/15 03:04:28;;;;;;;12.90;7.37;;;11.60;99.90;;;;;;4987738;28;20301;-76
2022/05/15 03:06:55;;;;;;;12.50;7.43;;;11.60;99.90;;;;;;4990352;28;20213;-73
2022/05/15 03:09:21;;;;;;;10.93;7.20;;;11.60;99.90;;;;;;4990273;28;20198;-77
2022/05/15 03:11:48;;;;;;;8.93;7.00;;;11.50;99.90;;;;;;4987667;28;20202;-74
2022/05/15 03:14:15;;;;;;;13.63;7.07;;;11.50;99.90;;;;;;4978899;28;20616;-73
2022/05/15 03:16:42;;;;;;;11.40;7.63;;;11.50;99.90;;;;;;4985842;28;20283;-74
2022/05/15 03:19:08;;;;;;;11.77;7.43;;;11.60;99.90;;;;;;4983074;28;20285;-72
2022/05/15 03:21:35;;;;;;;13.13;7.90;;;11.80;99.90;;;;;;4985482;28;20594;-72
2022/05/15 03:24:05;;;;;;;10.43;7.47;;;11.70;99.90;;;;;;4988765;28;20204;-74
2022/05/15 03:26:35;;;;;;;12.67;7.43;;;11.70;99.90;;;;;;4988434;28;20214;-76
2022/05/15 03:29:02;;;;;;;9.37;6.77;;;11.70;99.90;;;;;;4975917;28;20194;-72
2022/05/15 03:31:29;;;;;;;12.17;7.13;;;11.70;99.90;;;;;;4983117;28;20656;-75
2022/05/15 03:33:56;;;;;;;12.00;6.87;;;11.50;99.90;;;;;;4990743;28;20259;-74
2022/05/15 03:36:23;;;;;;;9.27;7.33;;;11.50;99.90;;;;;;4986368;28;20221;-74
2022/05/15 03:38:49;;;;;;;12.73;7.10;;;11.60;99.90;;;;;;4983084;28;20594;-73
2022/05/15 03:41:17;;;;;;;15.97;7.87;;;11.60;99.90;;;;;;4986587;28;20212;-76
2022/05/15 03:43:44;;;;;;;10.70;7.37;;;11.60;99.90;;;;;;4989240;28;20229;-75
2022/05/15 03:46:11;;;;;;;13.37;7.70;;;11.50;99.90;;;;;;4984105;28;20696;-74
2022/05/15 03:48:38;;;;;;;12.63;7.47;;;11.50;99.90;;;;;;4984538;28;20198;-75
2022/05/15 03:51:05;;;;;;;12.73;8.27;;;11.60;99.90;;;;;;4987781;28;20192;-78
2022/05/15 03:53:32;;;;;;;9.23;7.40;;;11.70;99.90;;;;;;4989530;28;20205;-75
2022/05/15 03:55:59;;;;;;;11.50;7.50;;;11.70;99.90;;;;;;4985956;28;20731;-77
2022/05/15 03:58:30;;;;;;;11.23;7.53;;;11.70;99.90;;;;;;4989901;28;20202;-74
2022/05/15 04:00:57;;;;;;;9.03;7.10;;;11.70;99.90;;;;;;4990388;28;20205;-75
2022/05/15 04:03:23;;;;;;;9.87;7.40;;;11.70;99.90;;;;;;4989854;28;20646;-77
2022/05/15 04:05:50;;;;;;;12.57;7.53;;;11.60;99.90;;;;;;4985867;28;20208;-76
2022/05/15 04:08:17;;;;;;;9.73;7.77;;;11.50;99.90;;;;;;4990388;28;20197;-76
2022/05/15 04:10:44;;;;;;;12.27;8.13;;;11.70;99.90;;;;;;4990408;28;20657;-75
2022/05/15 04:13:11;;;;;;;12.83;7.47;;;11.70;99.90;;;;;;4990239;28;20255;-75
2022/05/15 04:15:37;;;;;;;10.90;7.33;;;11.70;99.90;;;;;;4985812;28;20227;-75
2022/05/15 04:18:09;;;;;;;8.17;6.83;;;11.70;99.90;;;;;;4986450;28;20212;-74
2022/05/15 04:20:36;;;;;;;9.30;7.13;;;11.80;99.90;;;;;;4982914;28;20198;-74
2022/05/15 04:23:04;;;;;;;9.97;6.97;;;11.90;99.90;;;;;;4986493;28;20697;-72
2022/05/15 04:25:30;;;;;;;9.13;7.03;;;11.90;99.90;;;;;;4983422;28;20232;-72
2022/05/15 04:27:57;;;;;;;10.80;6.90;;;12.00;99.90;;;;;;4986067;28;20195;-72
2022/05/15 04:30:26;;;;;;;9.80;6.50;;;12.00;99.90;;;;;;4988963;28;20198;-71
2022/05/15 04:32:53;;;;;;;11.53;6.77;;;12.00;99.90;;;;;;4986556;28;20232;-71
2022/05/15 04:35:21;;;;;;;9.50;6.80;;;12.00;99.90;;;;;;4985329;28;20199;-72
2022/05/15 04:37:50;;;;;;;10.17;6.80;;;12.10;99.90;;;;;;4984802;28;20209;-71
2022/05/15 04:40:17;;;;;;;9.67;6.77;;;12.20;99.90;;;;;;4986965;28;20208;-74
2022/05/15 04:42:45;;;;;;;12.93;7.20;;;12.20;99.90;;;;;;4986603;28;20253;-73
2022/05/15 04:45:11;;;;;;;9.60;6.50;;;12.30;99.90;;;;;;4989655;28;20620;-73
2022/05/15 04:47:38;;;;;;;11.47;6.87;;;12.40;99.90;;;;;;4990721;28;20200;-72
2022/05/15 04:50:06;;;;;;;8.87;6.57;;;12.50;99.90;;;;;;4990396;28;20200;-71
2022/05/15 04:52:32;;;;;;;10.13;6.30;;;12.40;99.90;;;;;;4987789;28;20796;-71
2022/05/15 04:54:59;;;;;;;9.77;6.80;;;12.60;99.90;;;;;;4990675;28;20197;-72
2022/05/15 04:57:26;;;;;;;10.97;6.50;;;12.80;99.90;;;;;;4988531;28;20498;-72
2022/05/15 04:59:52;;;;;;;9.77;6.53;;;12.80;99.90;;;;;;4987939;28;20220;-72
2022/05/15 05:02:19;;;;;;;9.83;6.17;;;12.80;99.90;;;;;;4986761;28;20221;-74
2022/05/15 05:04:45;;;;;;;8.77;6.00;;;12.70;99.90;;;;;;4988597;28;20208;-70
2022/05/15 05:07:12;;;;;;;8.93;6.30;;;12.70;99.90;;;;;;4987653;28;20222;-70
2022/05/15 05:09:39;;;;;;;9.53;6.50;;;12.70;99.90;;;;;;4985704;28;20265;-73
2022/05/15 05:12:06;;;;;;;10.67;6.80;;;12.80;99.90;;;;;;4985604;28;20211;-71
2022/05/15 05:14:33;;;;;;;8.37;6.90;;;12.90;99.90;;;;;;4994075;28;20354;-71
2022/05/15 05:17:00;;;;;;;8.57;6.67;;;13.00;99.90;;;;;;4988231;28;20227;-70
2022/05/15 05:19:26;;;;;;;10.33;7.33;;;13.10;99.90;;;;;;4992037;28;20208;-70
2022/05/15 05:21:53;;;;;;;12.53;6.80;;;13.20;99.90;;;;;;4989910;28;20199;-73
2022/05/15 05:24:19;;;;;;;9.93;6.63;;;13.40;99.90;;;;;;4989054;28;20209;-71
2022/05/15 05:26:46;;;;;;;10.47;6.50;;;13.40;99.90;;;;;;4986973;28;20215;-69
2022/05/15 05:29:13;;;;;;;12.47;6.50;;;13.60;99.90;;;;;;4992354;28;20204;-70
2022/05/15 05:31:46;;;;;;;7.73;5.87;;;13.80;99.90;;;;;;4985451;28;20194;-72
2022/05/15 05:34:12;;;;;;;14.37;6.03;;;14.10;99.90;;;;;;4993000;28;20236;-72
2022/05/15 05:36:39;;;;;;;11.07;5.60;;;14.30;99.90;;;;;;4982530;28;20226;-70
2022/05/15 05:39:06;;;;;;;7.73;5.60;;;14.40;99.90;;;;;;4991773;28;20201;-70
2022/05/15 05:41:33;;;;;;;8.30;5.80;;;14.60;99.90;;;;;;4989643;28;20254;-68
2022/05/15 05:44:00;;;;;;;7.73;5.30;;;14.80;99.90;;;;;;4992852;28;20549;-70
2022/05/15 05:46:28;;;;;;;8.73;5.30;;;15.00;99.90;;;;;;4990511;28;20599;-71
2022/05/15 05:48:55;;;;;;;7.70;5.37;;;15.10;99.90;;;;;;4990220;28;20576;-71
2022/05/15 05:51:23;;;;;;;6.97;5.33;;;15.20;99.90;;;;;;4989058;28;20263;-72
2022/05/15 05:53:49;;;;;;;6.60;5.10;;;15.40;99.90;;;;;;4987087;28;20256;-70
2022/05/15 05:56:16;;;;;;;13.77;6.10;;;15.50;99.90;;;;;;4989401;28;20224;-69
2022/05/15 05:58:48;;;;;;;9.70;6.30;;;15.60;99.90;;;;;;4992774;28;20580;-70
2022/05/15 06:01:14;;;;;;;7.57;5.70;;;15.70;99.90;;;;;;4987674;28;20206;-70
2022/05/15 06:06:26;;;;;;;8.97;5.73;;;15.90;99.90;;;;;;4992765;28;20231;-70
2022/05/15 06:08:53;;;;;;;8.60;5.23;;;15.90;99.90;;;;;;4992429;28;20223;-74
2022/05/15 06:11:20;;;;;;;14.10;6.23;;;15.90;99.90;;;;;;4992662;28;20193;-70
2022/05/15 06:13:46;;;;;;;11.30;6.30;;;15.90;99.90;;;;;;4990367;28;20201;-70
2022/05/15 06:16:13;;;;;;;9.70;6.10;;;16.00;99.90;;;;;;4990809;28;20271;-70
2022/05/15 06:18:40;;;;;;;8.87;6.07;;;16.20;99.90;;;;;;4992168;28;20205;-70
2022/05/15 06:21:07;;;;;;;10.73;5.77;;;16.30;99.90;;;;;;4985446;28;20325;-69
2022/05/15 06:23:33;;;;;;;9.13;5.30;;;16.80;99.90;;;;;;4986688;28;20228;-73
2022/05/15 06:26:00;;;;;;;7.50;5.03;;;17.20;99.90;;;;;;4984867;28;20217;-70
2022/05/15 06:28:29;;;;;;;9.07;5.47;;;17.30;99.90;;;;;;4989527;28;20220;-70
2022/05/15 06:30:56;;;;;;;10.33;5.70;;;17.40;99.90;;;;;;4982610;28;20198;-73
2022/05/15 06:33:22;;;;;;;8.37;5.23;;;17.60;99.90;;;;;;4984389;28;20201;-70
2022/05/15 06:35:49;;;;;;;8.53;5.20;;;17.70;99.90;;;;;;4991548;28;20221;-70
2022/05/15 06:38:16;;;;;;;9.33;6.13;;;17.80;99.90;;;;;;4991009;28;20204;-73
2022/05/15 06:40:42;;;;;;;9.93;5.23;;;17.80;99.90;;;;;;4990088;28;20201;-74
2022/05/15 06:43:09;;;;;;;7.90;5.43;;;18.10;99.90;;;;;;4991456;28;20220;-70
2022/05/15 06:45:36;;;;;;;7.40;5.40;;;18.20;99.90;;;;;;4991397;28;20292;-72
2022/05/15 06:48:03;;;;;;;6.93;4.83;;;18.40;99.90;;;;;;4985390;28;20190;-70
2022/05/15 06:50:30;;;;;;;6.13;4.70;;;18.60;99.90;;;;;;4982038;28;20214;-73
2022/05/15 06:52:57;;;;;;;7.33;4.13;;;18.80;99.90;;;;;;4987457;28;20193;-73
2022/05/15 06:55:24;;;;;;;6.70;4.10;;;19.20;99.90;;;;;;4988053;28;20213;-70
2022/05/15 06:57:51;;;;;;;7.80;3.93;;;19.70;99.90;;;;;;4987998;28;20196;-71
2022/05/15 07:00:25;;;;;;;7.00;3.20;;;20.20;99.90;;;;;;4985226;28;20200;-70
2022/05/15 07:02:51;;;;;;;6.27;3.27;;;20.60;99.90;;;;;;4990502;28;20216;-71
2022/05/15 07:05:24;;;;;;;8.80;3.30;;;21.00;99.90;;;;;;4983271;28;20192;-70
2022/05/15 07:07:54;;;;;;;7.33;3.10;;;21.70;99.90;;;;;;4981199;28;20197;-72
2022/05/15 07:10:21;;;;;;;5.10;3.00;;;22.30;99.90;;;;;;4989257;28;20668;-72
2022/05/15 07:12:48;;;;;;;5.50;3.15;;;22.60;99.90;;;;;;4989611;28;20661;-72
2022/05/15 07:15:15;;;;;;;5.55;2.92;;;22.80;99.90;;;;;;4986964;28;20201;-71
2022/05/15 07:17:42;;;;;;;6.55;2.83;;;23.30;99.90;;;;;;4987709;28;20217;-73
2022/05/15 07:20:09;;;;;;;7.63;3.35;;;23.60;99.90;;;;;;4989187;28;20251;-71
2022/05/15 07:22:36;;;;;;;4.07;3.05;;;23.80;99.90;;;;;;4988590;28;20207;-71
2022/05/15 07:25:03;;;;;;;5.40;3.10;;;23.90;99.90;;;;;;4988869;28;20212;-71
2022/05/15 07:27:29;;;;;;;4.25;2.58;;;23.90;99.90;;;;;;4990118;28;20197;-71
2022/05/15 07:29:56;;;;;;;7.47;2.63;;;23.40;99.90;;;;;;4987847;28;20657;-71
2022/05/15 07:32:23;;;;;;;5.25;2.92;;;22.90;99.90;;;;;;4983550;28;20226;-71
2022/05/15 07:34:49;;;;;;;7.07;2.92;;;22.70;99.90;;;;;;4977706;28;20203;-71
2022/05/15 07:37:17;;;;;;;7.05;2.97;;;22.60;99.90;;;;;;4985879;28;20210;-70
2022/05/15 07:39:44;;;;;;;5.82;2.92;;;22.70;99.90;;;;;;4988842;28;20193;-71
2022/05/15 07:42:11;;;;;;;8.60;3.38;;;22.70;99.90;;;;;;4985567;28;20193;-71
2022/05/15 07:44:38;;;;;;;5.43;2.85;;;22.80;99.90;;;;;;4989579;28;20233;-72
2022/05/15 07:47:05;;;;;;;6.28;3.17;;;23.00;99.90;;;;;;4982247;28;20275;-70
2022/05/15 07:49:37;;;;;;;5.38;2.60;;;23.10;99.90;;;;;;4982941;28;20201;-71
2022/05/15 07:52:04;;;;;;;5.05;3.03;;;23.20;99.90;;;;;;4990685;28;20193;-74
2022/05/15 07:54:33;;;;;;;5.85;3.42;;;23.20;99.90;;;;;;4987872;28;20197;-71
2022/05/15 07:57:03;;;;;;;9.50;3.20;;;22.80;99.90;;;;;;4984127;28;20604;-69
2022/05/15 07:59:30;;;;;;;6.55;3.13;;;22.50;99.90;;;;;;4989236;28;20207;-73
2022/05/15 08:01:59;;;;;;;5.50;2.92;;;22.60;99.90;;;;;;4984395;28;20559;-73
2022/05/15 08:04:26;;;;;;;8.18;2.70;;;22.80;99.90;;;;;;4990371;28;20213;-70
2022/05/15 08:09:38;;;;;;;5.53;3.08;;;23.30;99.90;;;;;;4983656;28;20193;-71
2022/05/15 08:12:05;;;;;;;5.10;3.03;;;23.50;99.90;;;;;;4990435;28;20610;-73
2022/05/15 08:14:32;;;;;;;3.55;2.95;;;23.40;99.90;;;;;;4992513;28;20219;-69
2022/05/15 08:17:00;;;;;;;7.50;3.35;;;23.10;99.90;;;;;;4992047;28;20243;-72
2022/05/15 08:24:58;;;;;;;7.32;3.30;;;23.20;99.90;;;;;;4985508;28;20221;-71
2022/05/15 08:27:25;;;;;;;5.43;3.00;;;23.20;99.90;;;;;;4976043;28;20225;-70
2022/05/15 08:29:51;;;;;;;4.70;2.65;;;23.10;99.90;;;;;;4989399;28;20192;-72
2022/05/15 08:32:18;;;;;;;7.38;3.35;;;23.40;99.90;;;;;;4983542;28;20236;-70
2022/05/15 08:34:45;;;;;;;5.90;3.15;;;23.60;99.90;;;;;;4983048;28;20211;-70
2022/05/15 08:37:12;;;;;;;4.00;2.70;;;23.90;99.90;;;;;;4985481;28;20220;-71
2022/05/15 08:39:38;;;;;;;5.50;3.00;;;24.00;99.90;;;;;;4985161;28;20200;-71
2022/05/15 08:42:37;;;;;;;5.43;2.90;;;24.10;99.90;;;;;;4983142;28;20204;-70
2022/05/15 08:45:13;;;;;;;8.02;3.05;;;24.40;99.90;;;;;;4972611;28;20217;-76
2022/05/15 08:47:43;;;;;;;4.60;2.80;;;24.60;99.90;;;;;;4987279;28;20199;-74
2022/05/15 08:50:17;;;;;;;7.15;3.03;;;24.70;99.90;;;;;;4983507;28;20291;-72
2022/05/15 08:53:11;;;;;;;5.40;2.78;;;24.80;99.90;;;;;;4986833;28;20199;-71
2022/05/15 08:55:51;;;;;;;4.40;3.15;;;24.80;99.90;;;;;;4978020;28;20672;-75
2022/05/15 08:58:27;;;;;;;6.95;3.40;;;24.80;99.90;;;;;;4986318;28;20341;-71
2022/05/15 09:00:54;;;;;;;5.03;3.20;;;24.80;99.90;;;;;;4984103;28;20196;-71
2022/05/15 09:03:35;;;;;;;5.15;3.28;;;25.00;99.90;;;;;;4985129;28;20275;-71
2022/05/15 09:06:25;;;;;;;5.70;3.10;;;25.10;99.90;;;;;;4979947;28;20209;-71
2022/05/15 09:09:05;;;;;;;5.53;3.10;;;25.30;99.90;;;;;;4980813;28;20198;-71
2022/05/15 09:12:14;;;;;;;5.43;3.17;;;25.50;99.90;;;;;;4973941;28;20193;-71
2022/05/15 09:15:01;;;;;;;5.97;2.85;;;25.60;99.90;;;;;;4982304;28;20205;-71
2022/05/15 09:17:41;;;;;;;5.88;2.60;;;25.80;99.90;;;;;;4986272;28;20672;-71
2022/05/15 09:20:33;;;;;;;6.53;2.78;;;25.90;99.90;;;;;;4990250;28;20201;-71
2022/05/15 09:23:24;;;;;;;3.30;2.63;;;26.10;99.90;;;;;;4975794;28;20197;-71
2022/05/15 09:25:55;;;;;;;6.32;3.13;;;26.00;99.90;;;;;;4984508;28;20595;-73
2022/05/15 09:28:26;;;;;;;6.15;3.10;;;26.00;99.90;;;;;;4985173;28;20204;-71
2022/05/15 09:30:57;;;;;;;6.10;2.90;;;26.10;99.90;;;;;;4989932;28;20699;-71
2022/05/15 09:33:29;;;;;;;5.30;3.03;;;26.10;99.90;;;;;;4991975;28;20201;-71
2022/05/15 09:36:21;;;;;;;6.35;3.17;;;26.20;99.90;;;;;;4984152;28;20259;-74
2022/05/15 09:39:05;;;;;;;4.75;2.80;;;26.40;99.90;;;;;;4985209;28;20205;-70
2022/05/15 09:44:33;;;;;;;5.55;2.83;;;26.00;99.90;;;;;;4993307;28;20267;-72
2022/05/15 09:47:20;;;;;;;6.28;3.05;;;25.90;99.90;;;;;;4985521;28;20225;-74
2022/05/15 09:49:47;;;;;;;4.43;2.80;;;25.80;99.90;;;;;;4990234;28;20188;-71
2022/05/15 09:52:19;;;;;;;5.00;2.75;;;25.50;99.90;;;;;;4992844;28;20189;-71
2022/05/15 09:54:49;;;;;;;7.28;3.50;;;25.00;99.90;;;;;;4988496;28;20641;-73
2022/05/15 09:57:22;;;;;;;6.25;3.03;;;24.90;99.90;;;;;;4983272;28;20689;-71
2022/05/15 10:00:01;;;;;;;4.50;3.00;;;25.00;99.90;;;;;;4986669;28;20337;-71
2022/05/15 10:02:52;;;;;;;10.02;2.88;;;24.90;99.90;;;;;;4993515;28;20204;-73
2022/05/15 10:05:29;;;;;;;4.57;2.85;;;25.10;99.90;;;;;;4992327;28;20227;-76
2022/05/15 10:08:05;;;;;;;5.38;2.80;;;25.40;99.90;;;;;;4981036;28;20706;-76
2022/05/15 10:10:44;;;;;;;6.20;3.22;;;25.50;99.90;;;;;;4989669;28;20196;-75
2022/05/15 10:13:22;;;;;;;5.97;3.17;;;25.60;99.90;;;;;;4974654;28;20190;-75
2022/05/15 10:15:51;;;;;;;5.20;3.00;;;25.40;99.90;;;;;;4985536;28;20272;-71
2022/05/15 10:18:25;;;;;;;8.95;2.80;;;25.10;99.90;;;;;;4991819;28;20692;-72
2022/05/15 10:20:54;;;;;;;5.03;2.85;;;25.20;99.90;;;;;;4987208;28;20692;-70
2022/05/15 10:23:28;;;;;;;8.32;2.88;;;25.30;99.90;;;;;;4982435;28;20201;-70
2022/05/15 10:26:01;;;;;;;6.80;2.88;;;25.50;99.90;;;;;;4986465;28;20216;-71
2022/05/15 10:28:45;;;;;;;4.80;2.67;;;25.60;99.90;;;;;;4986083;28;20205;-72
2022/05/15 10:31:23;;;;;;;6.00;3.00;;;25.80;99.90;;;;;;4987856;28;20193;-72
2022/05/15 10:34:00;;;;;;;5.45;2.72;;;26.00;99.90;;;;;;4989773;28;20205;-73
2022/05/15 10:36:46;;;;;;;6.80;3.00;;;26.30;99.90;;;;;;4995493;28;20239;-73
2022/05/15 10:39:34;;;;;;;4.63;2.70;;;26.40;99.90;;;;;;4985084;28;20256;-71
2022/05/15 10:42:39;;;;;;;11.98;3.15;;;26.60;99.90;;;;;;4980095;28;20240;-72
2022/05/15 10:45:44;;;;;;;7.10;3.25;;;26.50;99.90;;;;;;4984340;28;20239;-73
2022/05/15 10:48:40;;;;;;;5.40;2.90;;;26.10;99.90;;;;;;4986669;28;20197;-74
2022/05/15 10:51:21;;;;;;;7.38;2.72;;;26.00;99.90;;;;;;4985964;28;20243;-72
2022/05/15 10:59:46;;;;;;;5.93;2.65;;;26.00;99.90;;;;;;4990481;28;20251;-76
2022/05/15 11:02:19;;;;;;;5.13;3.10;;;26.30;99.90;;;;;;4983174;28;20203;-72
2022/05/15 11:04:55;;;;;;;5.45;2.42;;;26.70;99.90;;;;;;4988977;28;20240;-72
2022/05/15 11:07:36;;;;;;;5.85;3.40;;;27.00;99.90;;;;;;4987225;28;20272;-71
2022/05/15 11:10:30;;;;;;;5.93;3.13;;;27.10;99.90;;;;;;4975000;28;20196;-74
2022/05/15 11:13:14;;;;;;;5.32;2.60;;;27.00;99.90;;;;;;4988856;28;20228;-71
2022/05/15 11:15:56;;;;;;;4.05;2.50;;;27.30;99.10;;;;;;4988506;28;20271;-72
2022/05/15 11:18:23;;;;;;;3.90;2.42;;;27.50;99.90;;;;;;4979695;28;20208;-71
2022/05/15 11:20:55;;;;;;;5.07;2.55;;;27.70;98.10;;;;;;4989341;28;20684;-72
2022/05/15 11:23:28;;;;;;;5.93;2.50;;;27.80;98.40;;;;;;4985696;28;20197;-76
2022/05/15 11:26:00;;;;;;;7.82;2.47;;;27.70;98.80;;;;;;4986038;28;20221;-74
2022/05/15 11:28:42;;;;;;;7.43;2.80;;;27.40;99.00;;;;;;4973077;28;20194;-73
2022/05/15 11:31:14;;;;;;;6.53;3.28;;;27.10;99.50;;;;;;4987701;28;20276;-74
2022/05/15 11:33:48;;;;;;;4.45;2.65;;;27.00;99.90;;;;;;4987324;28;20623;-76
2022/05/15 11:36:38;;;;;;;4.80;2.50;;;27.20;99.70;;;;;;4984477;28;20224;-72
2022/05/15 11:39:14;;;;;;;6.20;2.78;;;27.20;98.90;;;;;;4987767;28;20252;-72
2022/05/15 11:41:43;;;;;;;5.60;2.55;;;27.10;99.20;;;;;;4986929;28;20564;-74
2022/05/15 11:44:12;;;;;;;4.05;2.50;;;27.30;99.20;;;;;;4986614;28;20232;-72
2022/05/15 11:46:44;;;;;;;4.28;2.58;;;27.70;98.80;;;;;;4983656;28;20260;-72
2022/05/15 11:49:17;;;;;;;5.47;2.80;;;28.10;98.80;;;;;;4982996;28;20197;-73
2022/05/15 11:52:05;;;;;;;5.57;3.20;;;27.90;98.10;;;;;;4986333;28;20564;-74
2022/05/15 11:54:45;;;;;;;7.68;2.80;;;27.90;99.10;;;;;;4985519;28;20200;-74
2022/05/15 11:57:30;;;;;;;5.35;2.70;;;27.90;98.70;;;;;;4980344;28;20224;-73
2022/05/15 11:59:59;;;;;;;6.05;2.95;;;27.90;98.40;;;;;;4990160;28;20209;-76
2022/05/15 12:02:29;;;;;;;5.55;2.75;;;27.70;97.90;;;;;;4982975;28;20216;-71
2022/05/15 12:05:22;;;;;;;4.00;2.40;;;27.50;98.40;;;;;;4988240;28;20220;-73
2022/05/15 12:07:56;;;;;;;6.18;2.42;;;27.60;98.30;;;;;;4988935;28;20604;-73
2022/05/15 12:10:49;;;;;;;5.47;3.00;;;27.60;97.50;;;;;;4985476;28;20200;-72
2022/05/15 12:13:27;;;;;;;7.32;2.50;;;27.30;97.00;;;;;;4987603;28;20193;-72
2022/05/15 12:16:16;;;;;;;6.22;2.55;;;27.40;98.00;;;;;;4993082;28;20213;-72
2022/05/15 12:18:46;;;;;;;6.00;2.40;;;27.60;97.80;;;;;;4987623;28;20208;-74
2022/05/15 12:21:16;;;;;;;6.57;2.40;;;27.50;96.80;;;;;;4980024;28;20669;-72
2022/05/15 12:26:48;;;;;;;4.03;2.35;;;28.00;96.80;;;;;;4986306;28;20460;-71
2022/05/15 12:29:27;;;;;;;6.70;2.38;;;28.50;95.70;;;;;;4983533;28;20196;-73
2022/05/15 12:31:55;;;;;;;5.13;2.42;;;28.60;94.80;;;;;;4989140;28;20201;-73
2022/05/15 12:34:29;;;;;;;4.15;1.95;;;28.60;95.30;;;;;;4983496;28;20200;-71
2022/05/15 12:36:59;;;;;;;6.68;2.28;;;28.60;95.00;;;;;;4987473;28;20230;-72
2022/05/15 12:39:30;;;;;;;3.97;2.28;;;28.40;95.30;;;;;;4986444;28;20197;-75
2022/05/15 12:42:02;;;;;;;4.10;2.35;;;28.50;95.20;;;;;;4989513;28;20205;-71
2022/05/15 12:44:37;;;;;;;3.72;2.30;;;28.90;95.30;;;;;;4987836;28;20231;-74
2022/05/15 12:47:09;;;;;;;3.80;2.30;;;29.30;94.60;;;;;;4974792;28;20219;-74
2022/05/15 12:49:39;;;;;;;6.00;2.65;;;29.50;94.40;;;;;;4986959;28;20196;-72
2022/05/15 12:52:13;;;;;;;4.72;2.13;;;29.20;94.30;;;;;;4979761;28;20836;-71
2022/05/15 12:54:42;;;;;;;5.45;2.42;;;29.10;94.10;;;;;;4982207;28;20192;-72
2022/05/15 12:57:13;;;;;;;4.28;2.47;;;29.00;94.30;;;;;;4980437;28;20578;-71
2022/05/15 12:59:43;;;;;;;5.03;2.60;;;28.70;94.10;;;;;;4979102;28;20249;-71
2022/05/15 13:02:31;;;;;;;2.90;1.95;;;28.30;94.60;;;;;;4988795;28;20197;-74
2022/05/15 13:05:01;;;;;;;3.67;2.35;;;27.90;94.90;;;;;;4984909;28;20633;-72
2022/05/15 13:07:35;;;;;;;5.03;2.30;;;27.90;95.20;;;;;;4991584;28;20594;-75
2022/05/15 13:10:18;;;;;;;5.32;2.10;;;27.90;95.20;;;;;;4989612;28;20197;-73
2022/05/15 13:13:08;;;;;;;5.00;2.53;;;28.10;94.90;;;;;;4988061;28;20196;-72
2022/05/15 13:15:47;;;;;;;8.57;2.03;;;28.60;94.20;;;;;;4977778;28;20271;-72
2022/05/15 13:18:14;;;;;;;5.07;2.10;;;28.60;93.40;;;;;;4989068;28;20205;-72
2022/05/15 13:20:46;;;;;;;7.60;2.28;;;28.60;93.50;;;;;;4990329;28;20263;-72
2022/05/15 13:23:13;;;;;;;2.53;2.22;;;28.80;93.80;;;;;;4985851;28;20217;-70
2022/05/15 13:25:43;;;;;;;5.97;2.40;;;29.20;93.50;;;;;;4983153;28;20224;-72
2022/05/15 13:28:11;;;;;;;5.93;2.35;;;29.70;93.20;;;;;;4985922;28;20576;-72